createdAt,value
2023-01-23T00:04:35.751Z,99.83
2023-01-23T00:09:44.199Z,99.93
2023-01-23T00:14:51.679Z,100.00
2023-01-23T00:19:59.917Z,100.00
2023-01-23T00:25:08.541Z,99.94
2023-01-23T00:30:17.735Z,99.76
2023-01-23T00:35:25.903Z,99.96
2023-01-23T00:40:33.512Z,99.59
2023-01-23T00:45:41.652Z,99.39
2023-01-23T00:50:49.341Z,99.56
2023-01-23T00:55:57.832Z,99.76
2023-01-23T01:01:07.724Z,99.84
2023-01-23T01:06:15.971Z,99.99
2023-01-23T01:11:23.520Z,99.88
2023-01-23T01:16:31.582Z,99.88
2023-01-23T01:21:39.250Z,99.82
2023-01-23T01:26:47.129Z,99.81
2023-01-23T01:31:54.742Z,99.74
2023-01-23T01:37:03.159Z,99.85
2023-01-23T01:42:11.607Z,99.88
2023-01-23T01:47:19.749Z,99.78
2023-01-23T01:52:29.105Z,99.82
2023-01-23T01:57:42.371Z,99.89
2023-01-23T02:02:53.714Z,99.64
2023-01-23T02:08:05.146Z,99.43
2023-01-23T02:13:36.380Z,99.62
2023-01-23T02:18:48.380Z,99.81
2023-01-23T02:24:07.322Z,99.83
2023-01-23T02:29:16.103Z,99.78
2023-01-23T02:34:26.256Z,99.78
2023-01-23T02:39:33.928Z,99.68
2023-01-23T02:44:41.554Z,99.89
2023-01-23T02:49:48.743Z,99.78
2023-01-23T02:54:54.699Z,99.52
2023-01-23T03:00:17.427Z,99.85
2023-01-23T03:05:24.763Z,99.96
2023-01-23T03:10:30.876Z,100.00
2023-01-23T03:15:39.465Z,99.97
2023-01-23T03:20:47.653Z,100.00
2023-01-23T03:25:58.825Z,100.00
2023-01-23T03:31:06.562Z,99.94
2023-01-23T03:36:16.202Z,100.00
2023-01-23T03:41:27.640Z,100.00
2023-01-23T03:46:33.159Z,100.00
2023-01-23T03:51:41.588Z,100.00
2023-01-23T03:56:48.812Z,100.00
2023-01-23T04:01:54.823Z,100.00
2023-01-23T04:07:02.881Z,100.00
2023-01-23T04:12:10.998Z,100.00
2023-01-23T04:17:19.233Z,100.00
2023-01-23T04:22:26.661Z,100.00
2023-01-23T04:27:34.241Z,100.00
2023-01-23T04:32:41.652Z,100.00
2023-01-23T04:37:49.380Z,100.00
2023-01-23T04:42:56.996Z,100.00
2023-01-23T04:48:04.604Z,100.00
2023-01-23T04:53:14.357Z,100.00
2023-01-23T04:58:22.774Z,100.00
2023-01-23T05:03:30.375Z,100.00
2023-01-23T05:08:37.820Z,100.00
2023-01-23T05:13:45.827Z,100.00
2023-01-23T05:18:53.939Z,100.00
2023-01-23T05:24:01.435Z,100.00
2023-01-23T05:29:08.869Z,100.00
2023-01-23T05:34:16.411Z,100.00
2023-01-23T05:39:24.250Z,100.00
2023-01-23T05:44:32.280Z,100.00
2023-01-23T05:49:39.583Z,100.00
2023-01-23T05:54:47.450Z,100.00
2023-01-23T05:59:55.865Z,100.00
2023-01-23T06:05:03.530Z,100.00
2023-01-23T06:10:13.086Z,100.00
2023-01-23T06:15:20.450Z,100.00
2023-01-23T06:20:28.271Z,100.00
2023-01-23T06:25:36.015Z,100.00
2023-01-23T06:30:44.015Z,100.00
2023-01-23T06:46:58.886Z,100.00
2023-01-23T06:52:06.606Z,100.00
2023-01-23T06:57:14.423Z,100.00
2023-01-23T07:02:22.320Z,100.00
2023-01-23T07:07:30.195Z,100.00
2023-01-23T07:12:37.788Z,100.00
2023-01-23T07:17:46.666Z,100.00
2023-01-23T07:22:54.802Z,100.00
2023-01-23T07:28:02.393Z,100.00
2023-01-23T07:33:09.999Z,100.00
2023-01-23T07:38:18.161Z,100.00
2023-01-23T07:43:26.371Z,100.00
2023-01-23T07:48:33.804Z,100.00
2023-01-23T07:53:41.465Z,100.00
2023-01-23T07:58:52.553Z,100.00
2023-01-23T08:04:00.214Z,100.00
2023-01-23T08:09:09.091Z,100.00
2023-01-23T08:14:16.619Z,100.00
2023-01-23T08:19:26.306Z,100.00
2023-01-23T08:24:33.923Z,100.00
2023-01-23T08:29:41.748Z,100.00
2023-01-23T08:34:49.245Z,100.00
2023-01-23T08:39:56.869Z,100.00
2023-01-23T08:45:05.204Z,100.00
2023-01-23T08:50:14.650Z,100.00
2023-01-23T08:55:22.557Z,100.00
2023-01-23T09:00:31.342Z,100.00
2023-01-23T09:05:39.459Z,100.00
2023-01-23T09:10:48.140Z,100.00
2023-01-23T09:15:55.854Z,100.00
2023-01-23T09:21:08.765Z,100.00
2023-01-23T09:26:19.772Z,100.00
2023-01-23T09:31:28.077Z,100.00
2023-01-23T09:36:42.834Z,100.00
2023-01-23T09:41:51.915Z,100.00
2023-01-23T09:47:05.655Z,100.00
2023-01-23T09:52:17.331Z,100.00
2023-01-23T09:57:31.352Z,100.00
2023-01-23T10:02:39.202Z,100.00
2023-01-23T10:07:59.696Z,100.00
2023-01-23T10:13:16.688Z,100.00
2023-01-23T10:18:30.533Z,100.00
2023-01-23T10:24:03.559Z,100.00
2023-01-23T10:29:31.422Z,100.00
2023-01-23T10:34:48.888Z,100.00
2023-01-23T10:39:57.406Z,100.00
2023-01-23T10:45:05.448Z,100.00
2023-01-23T10:50:15.055Z,100.00
2023-01-23T10:55:33.514Z,100.00
2023-01-23T11:00:47.021Z,100.00
2023-01-23T11:05:57.083Z,100.00
2023-01-23T11:11:25.977Z,100.00
2023-01-23T11:16:35.206Z,100.00
2023-01-23T11:21:59.502Z,99.92
2023-01-23T11:27:17.558Z,99.76
2023-01-23T11:32:26.316Z,100.00
2023-01-23T11:37:38.210Z,100.00
2023-01-23T11:42:47.262Z,100.00
2023-01-23T11:48:08.803Z,100.00
2023-01-23T11:53:36.800Z,100.00
2023-01-23T11:59:25.326Z,100.00
2023-01-23T12:05:09.613Z,100.00
2023-01-23T12:10:25.141Z,100.00
2023-01-23T12:15:44.632Z,100.00
2023-01-23T12:21:01.629Z,100.00
2023-01-23T12:26:19.791Z,100.00
2023-01-23T12:31:46.714Z,100.00
2023-01-23T12:37:19.458Z,100.00
2023-01-23T12:42:41.698Z,100.00
2023-01-23T12:48:04.716Z,100.00
2023-01-23T12:53:15.453Z,100.00
2023-01-23T12:58:25.129Z,100.00
2023-01-23T13:03:46.575Z,100.00
2023-01-23T13:09:16.700Z,100.00
2023-01-23T13:15:03.636Z,100.00
2023-01-23T13:20:48.249Z,100.00
2023-01-23T13:26:29.451Z,100.00
2023-01-23T13:31:45.618Z,100.00
2023-01-23T13:36:55.554Z,100.00
2023-01-23T13:42:45.050Z,100.00
2023-01-23T14:21:41.039Z,100.00
2023-01-23T14:26:53.531Z,100.00
2023-01-23T14:32:01.509Z,100.00
2023-01-23T14:37:13.550Z,100.00
2023-01-23T14:52:22.673Z,100.00
2023-01-23T14:57:31.297Z,100.00
2023-01-23T15:02:39.602Z,100.00
2023-01-23T15:07:50.298Z,100.00
2023-01-23T15:13:02.370Z,100.00
2023-01-23T15:18:23.939Z,100.00
2023-01-23T15:23:34.249Z,100.00
2023-01-23T15:28:51.872Z,100.00
2023-01-23T15:34:13.391Z,100.00
2023-01-23T15:39:24.427Z,100.00
2023-01-23T15:44:34.044Z,100.00
2023-01-23T15:49:43.340Z,100.00
2023-01-23T15:54:52.131Z,100.00
2023-01-23T16:00:00.575Z,100.00
2023-01-23T16:05:10.230Z,100.00
2023-01-23T16:10:23.481Z,100.00
2023-01-23T16:15:33.007Z,100.00
2023-01-23T16:20:44.202Z,100.00
2023-01-23T16:25:52.904Z,100.00
2023-01-23T16:31:01.251Z,100.00
2023-01-23T16:36:14.215Z,100.00
2023-01-23T16:41:22.553Z,100.00
2023-01-23T16:46:30.309Z,100.00
2023-01-23T16:51:39.120Z,100.00
2023-01-23T16:56:51.188Z,100.00
2023-01-23T17:01:59.898Z,100.00
2023-01-23T17:07:11.553Z,100.00
2023-01-23T17:12:21.908Z,100.00
2023-01-23T17:17:33.460Z,100.00
2023-01-23T17:22:43.896Z,100.00
2023-01-23T17:28:10.865Z,100.00
2023-01-23T17:33:22.871Z,100.00
2023-01-23T17:38:34.719Z,100.00
2023-01-23T17:43:44.523Z,100.00
2023-01-23T17:48:52.073Z,100.00
2023-01-23T17:53:59.433Z,100.00
2023-01-23T17:59:07.254Z,100.00
2023-01-23T18:04:19.521Z,100.00
2023-01-23T18:09:26.992Z,100.00
2023-01-23T18:14:47.604Z,100.00
2023-01-23T18:19:56.447Z,100.00
2023-01-23T18:25:05.291Z,100.00
2023-01-23T18:30:44.737Z,100.00
2023-01-23T18:36:20.791Z,100.00
2023-01-23T18:41:30.382Z,100.00
2023-01-23T18:46:38.624Z,100.00
2023-01-23T18:51:55.610Z,100.00
2023-01-23T18:57:18.070Z,100.00
2023-01-23T19:02:34.046Z,100.00
2023-01-23T19:07:42.557Z,100.00
2023-01-23T19:12:56.933Z,100.00
2023-01-23T19:18:13.889Z,100.00
2023-01-23T19:23:38.909Z,100.00
2023-01-23T19:28:47.349Z,100.00
2023-01-23T19:33:55.975Z,100.00
2023-01-23T19:39:04.657Z,100.00
2023-01-23T19:44:15.409Z,100.00
2023-01-23T19:49:25.405Z,100.00
2023-01-23T19:54:34.390Z,100.00
2023-01-23T19:59:41.719Z,100.00
2023-01-23T20:04:49.413Z,100.00
2023-01-23T20:09:57.870Z,100.00
2023-01-23T20:21:03.552Z,100.00
2023-01-23T20:26:11.887Z,100.00
2023-01-23T20:31:19.834Z,100.00
2023-01-23T20:36:27.668Z,100.00
2023-01-23T20:41:35.019Z,100.00
2023-01-23T20:46:44.659Z,100.00
2023-01-23T20:51:52.440Z,100.00
2023-01-23T20:57:00.909Z,100.00
2023-01-23T21:02:24.028Z,100.00
2023-01-23T21:07:33.192Z,100.00
2023-01-23T21:12:41.544Z,100.00
2023-01-23T21:19:49.507Z,100.00
2023-01-23T21:24:57.044Z,100.00
2023-01-23T21:30:04.641Z,100.00
2023-01-23T21:35:12.597Z,100.00
2023-01-23T21:40:20.629Z,100.00
2023-01-23T21:45:27.932Z,100.00
2023-01-23T21:50:35.349Z,100.00
2023-01-23T21:55:42.840Z,100.00
2023-01-23T22:01:16.733Z,100.00
2023-01-23T22:06:25.106Z,100.00
2023-01-23T22:11:33.441Z,100.00
2023-01-23T22:16:48.465Z,100.00
2023-01-23T22:21:57.937Z,100.00
2023-01-23T22:27:06.291Z,100.00
2023-01-23T22:32:14.239Z,100.00
2023-01-23T22:37:22.225Z,100.00
2023-01-23T22:42:30.031Z,100.00
2023-01-23T22:47:37.833Z,100.00
2023-01-23T22:52:46.450Z,100.00
2023-01-23T22:57:55.912Z,100.00
2023-01-23T23:03:03.129Z,100.00
2023-01-23T23:08:08.827Z,100.00
2023-01-23T23:13:16.069Z,100.00
2023-01-23T23:18:22.725Z,100.00
2023-01-23T23:23:30.199Z,100.00
2023-01-23T23:28:39.879Z,100.00
2023-01-23T23:33:47.865Z,100.00
2023-01-23T23:38:55.484Z,100.00
2023-01-23T23:44:03.151Z,100.00
2023-01-23T23:49:10.903Z,100.00
2023-01-23T23:54:19.321Z,100.00
2023-01-23T23:59:26.799Z,100.00
